Time;durP1;ratioP1;P1;durP2;ratioP2;P2;SDS_P1;SDS_P2;PMS_P1;PMS_P2;Temp;Humidity;BMP_temperature;BMP_pressure;BME280_temperature;BME280_humidity;BME280_pressure;Samples;Min_cycle;Max_cycle;Signal;HPM_P1;HPM_P2
2023/05/20 00:02:08;;;;;;;19.75;5.70;;;;;;;14.88;65.63;102331.63;4987615;28;20054;-48
2023/05/20 00:04:35;;;;;;;17.60;5.00;;;;;;;14.87;65.71;102335.59;4987298;28;20054;-47
2023/05/20 00:07:03;;;;;;;27.33;6.47;;;;;;;14.88;66.18;102337.22;4990855;28;20129;-44
2023/05/20 00:09:29;;;;;;;16.27;4.30;;;;;;;14.86;66.17;102333.94;4992775;28;20431;-44
2023/05/20 00:11:56;;;;;;;20.55;5.70;;;;;;;14.87;66.38;102340.34;4992226;28;20234;-44
2023/05/20 00:14:23;;;;;;;20.15;5.38;;;;;;;14.87;66.57;102341.16;4991872;28;20097;-44
2023/05/20 00:16:53;;;;;;;20.80;7.28;;;;;;;14.88;66.78;102331.63;4989769;28;20061;-44
2023/05/20 00:19:20;;;;;;;20.90;5.90;;;;;;;14.91;66.67;102336.53;4991019;28;20042;-44
2023/05/20 00:21:47;;;;;;;17.58;4.95;;;;;;;14.91;66.81;102330.97;4990230;28;20096;-44
2023/05/20 00:24:14;;;;;;;15.73;5.85;;;;;;;14.89;66.89;102332.44;4989387;28;20042;-44
2023/05/20 00:26:40;;;;;;;21.92;6.05;;;;;;;14.87;67.59;102329.19;4988431;28;20038;-45
2023/05/20 00:29:07;;;;;;;24.08;6.18;;;;;;;14.89;67.59;102338.03;4991297;28;20074;-44
2023/05/20 00:31:34;;;;;;;21.77;5.55;;;;;;;14.92;67.44;102335.41;4972421;28;20053;-44
2023/05/20 00:34:01;;;;;;;18.48;4.95;;;;;;;14.93;67.70;102334.22;4998568;28;20073;-46
2023/05/20 00:36:28;;;;;;;17.10;6.07;;;;;;;14.92;67.96;102338.19;4993257;28;20378;-45
2023/05/20 00:38:55;;;;;;;17.73;5.68;;;;;;;14.88;68.24;102328.84;4992533;28;20042;-45
2023/05/20 00:41:21;;;;;;;14.88;4.93;;;;;;;14.85;68.50;102326.72;4970790;28;20058;-44
2023/05/20 00:43:53;;;;;;;13.48;5.13;;;;;;;14.88;68.59;102323.25;4992146;28;20050;-50
2023/05/20 00:46:22;;;;;;;17.30;5.35;;;;;;;14.87;68.77;102320.81;4992369;28;20077;-49
2023/05/20 00:48:50;;;;;;;22.20;6.85;;;;;;;14.84;68.84;102322.31;4992222;28;20124;-44
2023/05/20 00:51:19;;;;;;;12.73;5.18;;;;;;;14.86;68.98;102327.53;4992109;28;20090;-49
2023/05/20 00:53:46;;;;;;;22.40;5.50;;;;;;;14.86;69.18;102325.56;4992128;28;20058;-44
2023/05/20 00:56:13;;;;;;;22.05;5.70;;;;;;;14.84;69.51;102321.50;4991649;28;20138;-44
2023/05/20 00:58:40;;;;;;;16.65;5.60;;;;;;;14.82;69.47;102319.06;4992073;28;20057;-44
2023/05/20 01:01:07;;;;;;;24.83;6.60;;;;;;;14.79;69.86;102321.69;4991213;28;20050;-47
2023/05/20 01:03:34;;;;;;;21.48;6.07;;;;;;;14.77;69.95;102322.03;4991685;28;20046;-45
2023/05/20 01:06:02;;;;;;;19.33;5.40;;;;;;;14.71;70.31;102315.00;4974091;28;20046;-44
2023/05/20 01:08:32;;;;;;;20.58;5.80;;;;;;;14.71;70.23;102309.44;4991687;28;20592;-45
2023/05/20 01:11:07;;;;;;;22.20;6.07;;;;;;;14.76;70.58;102308.41;4991050;28;20534;-44
2023/05/20 01:13:47;;;;;;;21.65;6.60;;;;;;;14.78;70.49;102298.56;4992015;28;20046;-44
2023/05/20 01:16:17;;;;;;;21.83;5.55;;;;;;;14.73;70.61;102307.09;4991829;28;20039;-44
2023/05/20 01:18:47;;;;;;;30.13;6.93;;;;;;;14.74;70.79;102302.34;4991401;28;20038;-44
2023/05/20 01:21:14;;;;;;;18.95;5.45;;;;;;;14.73;70.79;102301.53;4990861;28;20093;-46
2023/05/20 01:23:41;;;;;;;17.17;5.32;;;;;;;14.70;70.94;102307.78;4991411;28;20057;-44
2023/05/20 01:26:12;;;;;;;21.80;7.00;;;;;;;14.71;71.00;102297.44;4990616;28;20488;-44
2023/05/20 01:28:42;;;;;;;20.77;5.60;;;;;;;14.68;71.00;102301.72;4981556;28;20530;-44
2023/05/20 01:31:18;;;;;;;22.88;7.18;;;;;;;14.68;71.17;102304.50;4990646;28;20439;-44
2023/05/20 01:33:49;;;;;;;19.17;5.50;;;;;;;14.64;71.18;102297.97;4990791;28;20097;-44
2023/05/20 01:36:18;;;;;;;14.87;5.10;;;;;;;14.59;71.22;102293.41;4986750;28;20125;-44
2023/05/20 01:38:47;;;;;;;23.05;5.60;;;;;;;14.57;71.54;102292.09;4991439;28;20046;-49
2023/05/20 01:41:14;;;;;;;23.00;5.20;;;;;;;14.57;71.57;102280.94;4987242;28;20043;-44
2023/05/20 01:43:42;;;;;;;18.27;6.38;;;;;;;14.54;71.79;102288.00;4990899;28;20054;-44
2023/05/20 01:46:09;;;;;;;20.05;6.20;;;;;;;14.51;71.89;102285.06;4991096;28;20046;-44
2023/05/20 01:48:37;;;;;;;21.05;6.38;;;;;;;14.48;71.86;102282.97;4991484;28;20105;-52
2023/05/20 01:51:04;;;;;;;24.10;5.75;;;;;;;14.43;71.62;102283.94;4987889;28;20050;-44
2023/05/20 01:53:30;;;;;;;18.50;6.43;;;;;;;14.40;71.46;102289.41;4979980;28;20041;-44
2023/05/20 01:55:57;;;;;;;20.20;6.43;;;;;;;14.35;71.24;102289.59;4988785;28;20117;-44
2023/05/20 01:58:24;;;;;;;30.90;7.72;;;;;;;14.32;71.13;102281.88;4991996;28;20043;-46
2023/05/20 02:00:51;;;;;;;21.40;6.25;;;;;;;14.29;71.23;102285.31;4987226;28;20543;-44
2023/05/20 02:03:18;;;;;;;20.98;5.32;;;;;;;14.27;71.39;102276.47;5000940;28;20054;-49
2023/05/20 02:05:45;;;;;;;18.20;5.35;;;;;;;14.22;71.30;102274.66;4976220;28;20092;-44
2023/05/20 02:08:12;;;;;;;20.52;6.82;;;;;;;14.21;71.54;102277.78;4988787;28;20121;-44
2023/05/20 02:10:39;;;;;;;16.30;5.25;;;;;;;14.22;71.62;102273.84;4989277;28;20046;-45
2023/05/20 02:13:05;;;;;;;19.63;6.60;;;;;;;14.23;71.68;102275.47;4990491;28;20061;-44
2023/05/20 02:15:32;;;;;;;14.73;5.68;;;;;;;14.20;71.99;102262.22;4999555;28;20052;-44
2023/05/20 02:18:01;;;;;;;20.88;6.65;;;;;;;14.19;72.10;102268.97;4973105;28;20165;-44
2023/05/20 02:20:29;;;;;;;17.08;4.97;;;;;;;14.18;72.11;102265.34;4989918;28;20092;-47
2023/05/20 02:22:56;;;;;;;22.55;5.32;;;;;;;14.17;71.98;102262.88;4990318;28;20049;-44
2023/05/20 02:25:22;;;;;;;17.23;5.85;;;;;;;14.18;72.16;102262.56;4990680;28;20447;-44
2023/05/20 02:27:54;;;;;;;25.35;7.22;;;;;;;14.18;72.20;102265.34;4986005;28;20149;-45
2023/05/20 02:30:21;;;;;;;29.05;6.18;;;;;;;14.17;72.23;102265.66;4988833;28;20066;-44
2023/05/20 02:32:48;;;;;;;19.13;5.88;;;;;;;14.16;72.32;102264.03;4989933;28;20042;-44
2023/05/20 02:35:15;;;;;;;21.38;6.00;;;;;;;14.14;72.44;102266.34;4989659;28;20125;-44
2023/05/20 02:37:43;;;;;;;17.10;5.00;;;;;;;14.10;72.66;102257.00;4989977;28;20472;-48
2023/05/20 02:40:10;;;;;;;21.20;6.22;;;;;;;14.08;72.29;102264.88;4984411;28;20059;-44
2023/05/20 02:42:37;;;;;;;20.25;5.95;;;;;;;14.06;72.53;102261.63;4990131;28;20404;-44
2023/05/20 02:45:05;;;;;;;19.67;5.40;;;;;;;14.04;72.38;102261.94;4972069;28;20049;-44
2023/05/20 02:47:32;;;;;;;24.83;6.63;;;;;;;14.01;72.40;102269.00;4987968;28;20035;-48
2023/05/20 02:49:59;;;;;;;15.68;5.18;;;;;;;13.99;72.50;102271.28;4989726;28;20054;-44
2023/05/20 02:52:28;;;;;;;14.85;5.55;;;;;;;13.97;72.75;102256.91;4989839;28;20404;-45
2023/05/20 02:54:55;;;;;;;21.02;6.28;;;;;;;13.97;72.64;102253.28;4989696;28;20053;-44
2023/05/20 02:57:22;;;;;;;25.35;6.28;;;;;;;13.97;72.93;102244.94;4989395;28;20489;-47
2023/05/20 02:59:51;;;;;;;22.38;6.68;;;;;;;13.95;72.94;102250.81;4989445;28;20053;-44
2023/05/20 03:02:18;;;;;;;24.30;6.50;;;;;;;13.93;73.42;102250.34;4990481;23;20059;-44
2023/05/20 03:04:46;;;;;;;21.40;5.43;;;;;;;13.92;73.43;102243.16;4963311;28;20081;-44
2023/05/20 03:07:13;;;;;;;26.98;6.43;;;;;;;13.91;73.58;102243.47;4969932;28;20515;-44
2023/05/20 03:09:40;;;;;;;26.10;7.25;;;;;;;13.89;73.80;102243.00;4969232;28;20045;-44
2023/05/20 03:12:07;;;;;;;21.05;6.85;;;;;;;13.89;73.95;102237.41;4976306;28;20121;-44
2023/05/20 03:14:34;;;;;;;16.38;5.63;;;;;;;13.89;74.10;102232.69;4970674;28;20061;-44
2023/05/20 03:17:01;;;;;;;21.70;6.03;;;;;;;13.89;74.17;102223.50;4970364;28;20037;-44
2023/05/20 03:19:28;;;;;;;22.17;5.22;;;;;;;13.89;74.50;102223.50;4969154;28;20047;-44
2023/05/20 03:21:55;;;;;;;18.60;5.38;;;;;;;13.88;74.66;102224.63;4969767;28;20042;-44
2023/05/20 03:24:22;;;;;;;24.08;7.72;;;;;;;13.89;74.71;102232.69;4969760;28;20050;-44
2023/05/20 03:26:49;;;;;;;18.15;5.55;;;;;;;13.90;74.92;102234.28;4971376;28;20138;-44
2023/05/20 03:29:16;;;;;;;29.33;8.05;;;;;;;13.89;75.13;102227.09;4973636;28;20158;-49
2023/05/20 03:31:43;;;;;;;18.90;5.25;;;;;;;13.88;74.95;102219.88;4969606;28;20237;-43
2023/05/20 03:34:10;;;;;;;24.17;6.75;;;;;;;13.91;75.31;102221.19;4969730;28;20061;-44
2023/05/20 03:36:37;;;;;;;26.10;7.65;;;;;;;13.90;75.29;102212.00;4969119;28;20043;-44
2023/05/20 03:39:04;;;;;;;23.02;7.15;;;;;;;13.91;75.51;102216.44;4969713;28;20524;-45
2023/05/20 03:41:31;;;;;;;20.35;6.50;;;;;;;13.91;75.40;102219.22;4969105;28;20042;-50
2023/05/20 03:43:58;;;;;;;17.95;5.53;;;;;;;13.90;75.53;102211.19;4952291;28;20078;-44
2023/05/20 03:46:29;;;;;;;17.80;6.85;;;;;;;13.91;75.77;102210.06;4969874;28;20050;-44
2023/05/20 03:48:57;;;;;;;24.85;7.55;;;;;;;13.87;75.59;102207.09;4969758;28;20058;-47
2023/05/20 03:51:23;;;;;;;23.80;6.53;;;;;;;13.82;75.82;102198.94;4969523;28;20086;-48
2023/05/20 03:53:50;;;;;;;17.23;5.25;;;;;;;13.80;76.16;102197.63;4968741;28;20054;-44
2023/05/20 03:56:17;;;;;;;22.08;5.78;;;;;;;13.79;76.26;102199.59;4969864;28;20145;-44
2023/05/20 03:58:44;;;;;;;17.50;5.30;;;;;;;13.79;76.34;102198.81;4969531;28;20146;-44
2023/05/20 04:01:14;;;;;;;15.40;5.10;;;;;;;13.77;76.41;102201.06;4969131;28;20062;-44
2023/05/20 04:03:41;;;;;;;20.10;6.03;;;;;;;13.76;76.37;102203.06;4969673;28;20046;-45
2023/05/20 04:06:08;;;;;;;19.20;5.88;;;;;;;13.77;76.40;102195.50;4969810;28;20043;-44
2023/05/20 04:08:38;;;;;;;20.00;4.88;;;;;;;13.77;76.35;102196.34;4969436;28;20122;-46
2023/05/20 04:11:05;;;;;;;15.98;4.28;;;;;;;13.79;76.30;102198.81;4961102;28;20058;-49
2023/05/20 04:13:32;;;;;;;18.63;6.22;;;;;;;13.80;76.35;102194.84;4969377;28;20138;-44
2023/05/20 04:16:17;;;;;;;18.23;5.00;;;;;;;13.77;76.47;102190.75;4968477;28;20050;-49
2023/05/20 04:18:44;;;;;;;19.20;5.22;;;;;;;13.77;76.60;102196.34;4969018;28;20059;-46
2023/05/20 04:21:11;;;;;;;13.98;4.97;;;;;;;13.75;76.64;102193.06;4968453;28;20515;-44
2023/05/20 04:23:38;;;;;;;21.67;5.28;;;;;;;13.71;76.59;102197.69;4969045;28;20043;-44
2023/05/20 04:26:05;;;;;;;21.35;6.60;;;;;;;13.68;76.68;102186.38;4969981;28;20061;-44
2023/05/20 04:28:33;;;;;;;21.08;6.85;;;;;;;13.66;76.98;102188.69;4968651;28;20053;-44
2023/05/20 04:31:03;;;;;;;21.75;5.45;;;;;;;13.66;77.00;102189.47;4967808;28;20050;-44
2023/05/20 04:33:31;;;;;;;18.55;5.18;;;;;;;13.69;77.03;102190.78;4959562;28;20504;-44
2023/05/20 04:36:00;;;;;;;20.25;5.35;;;;;;;13.69;77.08;102196.34;4954967;28;20051;-44
2023/05/20 04:38:28;;;;;;;24.35;6.25;;;;;;;13.70;77.18;102201.59;4969493;28;20503;-44
2023/05/20 04:40:56;;;;;;;17.33;5.63;;;;;;;13.71;77.22;102208.00;4969059;28;20918;-46
2023/05/20 04:43:25;;;;;;;11.82;5.05;;;;;;;13.68;77.23;102201.13;4969008;28;20051;-44
2023/05/20 04:45:52;;;;;;;16.85;5.38;;;;;;;13.69;77.32;102201.91;4968483;28;20079;-44
2023/05/20 04:48:19;;;;;;;23.13;6.25;;;;;;;13.68;77.52;102203.91;4971002;28;20069;-48
2023/05/20 04:50:47;;;;;;;29.50;6.32;;;;;;;13.69;77.46;102193.56;4969089;28;20058;-44
2023/05/20 04:53:15;;;;;;;19.00;5.82;;;;;;;13.70;77.69;102200.78;4971697;28;20050;-44
2023/05/20 04:55:42;;;;;;;21.27;6.90;;;;;;;13.70;77.67;102196.03;4955152;28;20042;-44
2023/05/20 04:58:14;;;;;;;13.07;5.28;;;;;;;13.70;77.77;102201.59;4971897;28;20047;-45
2023/05/20 05:00:41;;;;;;;18.05;5.40;;;;;;;13.71;77.89;102208.81;4972309;28;20412;-44
2023/05/20 05:03:08;;;;;;;22.77;7.47;;;;;;;13.72;77.90;102202.09;4971400;28;20093;-44
2023/05/20 05:05:35;;;;;;;17.75;5.88;;;;;;;13.76;77.83;102205.03;4961793;28;20047;-48
2023/05/20 05:08:03;;;;;;;23.38;5.80;;;;;;;13.77;77.85;102196.34;4972574;28;20097;-44
2023/05/20 05:10:29;;;;;;;21.35;5.53;;;;;;;13.77;78.02;102201.91;4955069;28;20555;-44
2023/05/20 05:12:56;;;;;;;19.02;6.57;;;;;;;13.77;77.95;102199.13;4971369;28;20488;-44
2023/05/20 05:15:24;;;;;;;19.58;6.25;;;;;;;13.76;78.18;102194.72;4972631;28;20054;-44
2023/05/20 05:18:00;;;;;;;18.73;6.05;;;;;;;13.76;78.17;102200.28;4970645;28;20493;-44
2023/05/20 05:20:27;;;;;;;16.95;5.90;;;;;;;13.76;78.03;102200.28;4971969;28;20043;-51
2023/05/20 05:22:54;;;;;;;20.48;4.82;;;;;;;13.77;77.96;102201.91;4971935;28;20047;-44
2023/05/20 05:25:21;;;;;;;17.80;4.85;;;;;;;13.75;78.17;102201.41;4971865;28;20558;-44
2023/05/20 05:27:49;;;;;;;21.48;5.78;;;;;;;13.74;77.83;102205.34;4971741;28;20055;-49
2023/05/20 05:30:17;;;;;;;19.73;6.53;;;;;;;13.72;78.13;102207.66;4969409;28;20518;-44
2023/05/20 05:32:44;;;;;;;19.05;5.10;;;;;;;13.70;77.92;102198.81;4974893;28;20477;-44
2023/05/20 05:35:11;;;;;;;14.57;4.40;;;;;;;13.70;78.18;102193.25;4970565;28;20050;-50
2023/05/20 05:37:38;;;;;;;19.30;4.65;;;;;;;13.72;78.02;102190.94;4978457;28;20047;-44
2023/05/20 05:40:07;;;;;;;17.05;4.95;;;;;;;13.74;78.10;102196.19;4972098;28;20055;-50
2023/05/20 05:42:33;;;;;;;13.88;5.20;;;;;;;13.75;78.33;102198.63;4971906;28;20053;-44
2023/05/20 05:45:01;;;;;;;15.18;5.18;;;;;;;13.77;78.33;102196.34;4971951;28;20397;-44
2023/05/20 05:47:31;;;;;;;15.65;4.55;;;;;;;13.79;78.15;102185.69;4971658;28;20543;-44
2023/05/20 05:50:01;;;;;;;26.17;5.72;;;;;;;13.79;78.33;102198.81;4973551;28;20042;-44
2023/05/20 05:52:28;;;;;;;16.20;5.75;;;;;;;13.78;78.17;102203.56;4971157;28;20089;-46
2023/05/20 05:54:55;;;;;;;15.18;5.32;;;;;;;13.79;78.27;102205.16;4971459;28;20046;-44
2023/05/20 05:57:22;;;;;;;19.27;4.75;;;;;;;13.79;78.41;102199.59;4971049;28;20133;-47
2023/05/20 05:59:49;;;;;;;22.40;4.82;;;;;;;13.83;78.56;102205.31;4970894;28;20042;-44
2023/05/20 06:02:16;;;;;;;16.92;4.45;;;;;;;13.83;78.76;102199.75;4971663;28;20050;-44
2023/05/20 06:04:43;;;;;;;15.43;4.53;;;;;;;13.87;78.72;102195.19;4970458;28;20141;-45
2023/05/20 06:07:10;;;;;;;15.95;4.60;;;;;;;13.87;78.75;102195.19;4958804;28;20480;-44
2023/05/20 06:09:37;;;;;;;16.52;5.45;;;;;;;13.86;78.82;102199.94;4970556;28;20457;-45
2023/05/20 06:12:05;;;;;;;16.90;5.25;;;;;;;13.90;78.73;102194.50;4970495;28;20057;-44
2023/05/20 06:14:31;;;;;;;20.98;5.53;;;;;;;13.93;78.65;102191.88;4970874;28;20066;-52
2023/05/20 06:16:58;;;;;;;17.30;5.35;;;;;;;13.94;78.60;102195.47;4970341;28;20497;-44
2023/05/20 06:19:25;;;;;;;18.30;5.13;;;;;;;13.93;78.63;102193.81;4970106;28;20509;-44
2023/05/20 06:21:52;;;;;;;13.70;4.18;;;;;;;13.96;78.51;102195.94;4970684;28;20053;-44
2023/05/20 06:24:19;;;;;;;19.45;5.10;;;;;;;13.94;78.75;102190.72;4970839;28;20045;-44
2023/05/20 06:26:49;;;;;;;15.55;5.20;;;;;;;13.96;78.79;102195.94;4970083;28;20046;-44
2023/05/20 06:29:16;;;;;;;14.35;4.65;;;;;;;13.99;78.70;102198.06;4970878;28;20113;-50
2023/05/20 06:31:43;;;;;;;17.13;5.20;;;;;;;13.98;78.69;102202.81;4969068;28;20105;-44
2023/05/20 06:34:10;;;;;;;16.10;4.82;;;;;;;13.98;78.62;102207.56;4967376;28;20428;-44
2023/05/20 06:36:37;;;;;;;19.02;4.85;;;;;;;13.94;78.84;102207.44;4967626;28;20046;-44
2023/05/20 06:39:05;;;;;;;14.45;3.85;;;;;;;13.91;78.79;102201.69;4964423;28;20117;-44
2023/05/20 06:41:32;;;;;;;14.40;4.35;;;;;;;13.89;78.83;102207.63;4969430;28;20133;-44
2023/05/20 06:43:58;;;;;;;12.80;4.03;;;;;;;13.87;78.99;102207.09;4966670;28;20404;-44
2023/05/20 06:46:25;;;;;;;14.23;4.70;;;;;;;13.89;78.83;102204.00;4969474;28;20253;-44
2023/05/20 06:48:52;;;;;;;15.07;4.55;;;;;;;13.88;79.03;102208.75;4952823;28;20055;-44
2023/05/20 06:51:19;;;;;;;19.52;6.03;;;;;;;13.88;79.04;102207.94;4970759;28;20043;-51
2023/05/20 06:53:46;;;;;;;16.13;4.35;;;;;;;13.91;79.13;102191.38;4970666;28;20110;-44
2023/05/20 06:56:13;;;;;;;12.07;4.40;;;;;;;13.95;79.27;102189.56;4970406;28;20043;-44
2023/05/20 06:58:39;;;;;;;19.98;7.00;;;;;;;13.97;79.08;102195.63;4968507;28;20053;-45
2023/05/20 07:01:06;;;;;;;16.25;4.43;;;;;;;13.99;79.14;102190.53;4970134;28;20051;-45
2023/05/20 07:03:33;;;;;;;16.30;5.03;;;;;;;14.06;79.24;102192.00;4970164;28;20046;-46
2023/05/20 07:06:00;;;;;;;12.93;3.83;;;;;;;14.09;79.21;102197.69;4969911;28;20078;-45
2023/05/20 07:08:27;;;;;;;15.20;3.97;;;;;;;14.06;79.03;102192.78;4970437;28;20125;-47
2023/05/20 07:10:55;;;;;;;11.13;4.32;;;;;;;14.06;79.21;102203.16;4970210;28;20050;-47
2023/05/20 07:13:22;;;;;;;18.98;4.90;;;;;;;14.04;79.44;102200.66;4970414;28;20050;-45
2023/05/20 07:15:49;;;;;;;16.00;5.00;;;;;;;14.03;79.46;102196.28;4969533;28;20078;-46
2023/05/20 07:18:18;;;;;;;12.75;3.78;;;;;;;14.03;79.48;102205.41;4969730;28;20436;-44
2023/05/20 07:20:44;;;;;;;8.00;3.47;;;;;;;14.04;79.50;102201.50;4970213;28;20046;-44
2023/05/20 07:23:11;;;;;;;13.98;4.38;;;;;;;14.03;79.47;102197.06;4970035;28;20043;-46
2023/05/20 07:25:41;;;;;;;13.15;3.88;;;;;;;14.04;79.51;102200.66;4969758;28;20059;-46
2023/05/20 07:28:20;;;;;;;11.98;4.60;;;;;;;14.04;79.60;102198.72;4969503;28;20101;-45
2023/05/20 07:30:49;;;;;;;12.27;4.38;;;;;;;14.04;79.61;102201.50;4963861;28;20507;-49
2023/05/20 07:33:17;;;;;;;14.23;4.30;;;;;;;14.11;79.51;102200.16;4967893;28;20114;-49
2023/05/20 07:35:45;;;;;;;13.77;4.10;;;;;;;14.15;79.52;102201.13;4966797;28;20130;-44
2023/05/20 07:38:11;;;;;;;13.98;3.78;;;;;;;14.19;79.40;102208.47;4967447;28;20078;-45
2023/05/20 07:40:40;;;;;;;11.55;4.03;;;;;;;14.22;79.52;102201.41;4965497;28;20099;-45
2023/05/20 07:43:08;;;;;;;14.38;4.10;;;;;;;14.24;79.44;102199.94;4969686;28;20070;-45
2023/05/20 07:45:35;;;;;;;14.90;3.95;;;;;;;14.30;79.45;102198.59;4968948;28;20486;-45
2023/05/20 07:48:04;;;;;;;16.17;5.55;;;;;;;14.33;79.25;102197.13;4969930;28;20038;-49
2023/05/20 07:50:31;;;;;;;20.67;5.25;;;;;;;14.35;79.44;102214.34;4976694;28;20051;-45
2023/05/20 07:52:58;;;;;;;15.18;4.40;;;;;;;14.39;79.28;102209.72;4968826;28;20454;-50
2023/05/20 07:55:25;;;;;;;18.25;5.13;;;;;;;14.42;79.46;102221.03;4969990;28;20047;-49
2023/05/20 07:57:52;;;;;;;18.48;5.90;;;;;;;14.48;79.34;102218.88;4966749;28;20042;-46
2023/05/20 08:00:19;;;;;;;12.32;4.10;;;;;;;14.50;79.21;102225.75;4966783;28;20042;-48
2023/05/20 08:02:46;;;;;;;18.00;4.28;;;;;;;14.55;79.13;102219.16;4956602;28;20093;-46
2023/05/20 08:05:13;;;;;;;13.15;4.55;;;;;;;14.58;79.19;102213.75;4949163;28;20047;-47
2023/05/20 08:07:40;;;;;;;12.23;4.05;;;;;;;14.62;79.06;102216.66;4967965;28;20122;-52
2023/05/20 08:10:08;;;;;;;15.73;3.30;;;;;;;14.63;78.97;102207.97;4968859;28;20154;-46
2023/05/20 08:12:34;;;;;;;16.42;4.10;;;;;;;14.64;78.98;102208.75;4966560;28;20059;-46
2023/05/20 08:15:01;;;;;;;13.20;5.20;;;;;;;14.65;78.96;102210.41;4966633;28;20039;-47
2023/05/20 08:17:31;;;;;;;12.25;3.67;;;;;;;14.64;78.82;102209.59;4969135;28;20059;-46
2023/05/20 08:19:58;;;;;;;14.02;5.75;;;;;;;14.67;78.95;102213.66;4969148;28;20142;-46
2023/05/20 08:22:25;;;;;;;10.98;4.07;;;;;;;14.68;78.83;102211.69;4970015;28;20042;-46
2023/05/20 08:24:52;;;;;;;10.02;4.00;;;;;;;14.69;78.73;102210.56;4969256;28;20049;-45
2023/05/20 08:27:19;;;;;;;16.42;6.45;;;;;;;14.68;78.28;102212.53;4965966;28;20058;-45
2023/05/20 08:29:45;;;;;;;19.05;4.88;;;;;;;14.72;78.65;102205.09;4955872;28;20050;-47
2023/05/20 08:32:15;;;;;;;22.95;5.18;;;;;;;14.74;78.58;102208.38;4970402;28;20074;-45
2023/05/20 08:34:42;;;;;;;11.73;4.45;;;;;;;14.79;78.37;102199.00;4971847;28;20046;-45
2023/05/20 08:37:09;;;;;;;14.52;4.97;;;;;;;14.85;78.40;102201.25;4971897;28;20047;-45
2023/05/20 08:39:36;;;;;;;16.92;5.05;;;;;;;14.93;78.36;102200.38;4971754;28;20078;-46
2023/05/20 08:42:05;;;;;;;17.17;5.18;;;;;;;15.02;78.16;102198.34;4971420;28;20058;-45
2023/05/20 08:44:33;;;;;;;17.55;3.88;;;;;;;15.11;77.92;102190.72;4971370;28;20050;-46
2023/05/20 08:47:02;;;;;;;14.95;4.00;;;;;;;15.14;77.86;102189.22;4969847;28;20046;-45
2023/05/20 08:49:30;;;;;;;10.15;4.32;;;;;;;15.18;77.89;102193.78;4959371;28;20043;-45
2023/05/20 08:51:59;;;;;;;11.63;5.18;;;;;;;15.19;77.52;102191.81;4972828;28;20084;-46
2023/05/20 08:54:41;;;;;;;14.23;3.95;;;;;;;15.17;77.45;102189.34;4971686;28;20050;-45
2023/05/20 08:57:09;;;;;;;;;;;;;;;15.15;77.46;102188.88;4973087;28;20042;-45
2023/05/20 08:59:36;;;;;;;17.35;4.43;;;;;;;15.18;77.37;102179.81;4971229;28;19966;-50
2023/05/20 09:02:03;;;;;;;15.38;4.30;;;;;;;15.20;77.18;102188.66;4970922;28;20063;-46
2023/05/20 09:04:30;;;;;;;16.48;4.07;;;;;;;15.22;77.06;102180.75;4972908;28;20074;-45
2023/05/20 09:06:57;;;;;;;18.88;4.75;;;;;;;15.25;77.19;102185.66;4972445;28;20049;-45
2023/05/20 09:09:23;;;;;;;10.38;3.97;;;;;;;15.29;76.96;102179.41;4971204;28;20042;-46
2023/05/20 09:11:50;;;;;;;16.85;4.82;;;;;;;15.29;76.78;102174.66;4969239;28;20058;-46
2023/05/20 09:14:17;;;;;;;17.40;5.13;;;;;;;15.28;76.67;102173.00;4970460;28;20043;-46
2023/05/20 09:16:44;;;;;;;21.80;6.47;;;;;;;15.28;76.85;102173.00;4968598;28;20078;-45
2023/05/20 09:19:11;;;;;;;12.95;4.45;;;;;;;15.34;76.85;102176.41;4972485;28;20043;-45
2023/05/20 09:21:40;;;;;;;16.25;5.13;;;;;;;15.42;77.07;102170.75;4971863;28;20059;-45
2023/05/20 09:24:07;;;;;;;10.63;4.05;;;;;;;15.44;76.83;102179.56;4955216;28;20050;-45
2023/05/20 09:26:34;;;;;;;14.52;4.90;;;;;;;15.50;76.49;102177.41;4971828;28;20132;-45
2023/05/20 09:29:00;;;;;;;19.33;5.88;;;;;;;15.53;76.11;102174.78;4972252;28;20039;-45
2023/05/20 09:31:32;;;;;;;15.60;5.07;;;;;;;15.58;76.04;102184.91;4972068;28;20051;-45
2023/05/20 09:33:59;;;;;;;;;;;;;;;15.59;75.99;102172.59;4970509;28;20485;-45
2023/05/20 09:36:28;;;;;;;16.05;5.05;;;;;;;15.62;76.11;102180.28;4970097;28;19947;-48
2023/05/20 09:39:02;;;;;;;16.67;4.45;;;;;;;15.69;75.82;102174.94;4971315;28;20051;-45
2023/05/20 09:41:34;;;;;;;23.17;5.15;;;;;;;15.79;75.96;102182.84;4971908;28;20054;-44
2023/05/20 09:44:02;;;;;;;22.75;5.20;;;;;;;15.80;75.18;102178.91;4971780;28;20043;-47
2023/05/20 09:46:30;;;;;;;15.43;4.05;;;;;;;15.79;74.94;102185.66;4972225;28;20062;-45
2023/05/20 09:48:58;;;;;;;12.63;4.10;;;;;;;15.78;74.75;102189.59;4971646;28;20057;-50
2023/05/20 09:51:28;;;;;;;13.00;4.22;;;;;;;15.73;74.72;102184.22;4970945;28;20548;-45
2023/05/20 09:53:56;;;;;;;15.88;4.38;;;;;;;15.67;74.78;102175.25;4971675;28;20039;-45
2023/05/20 09:56:24;;;;;;;13.77;5.10;;;;;;;15.64;74.72;102180.72;4971883;28;20038;-45
2023/05/20 09:58:57;;;;;;;13.38;4.68;;;;;;;15.62;74.94;102177.47;4969761;28;20047;-45
2023/05/20 10:01:24;;;;;;;16.15;4.35;;;;;;;15.64;74.91;102181.56;4970102;28;20066;-44
2023/05/20 10:03:52;;;;;;;17.40;4.50;;;;;;;15.66;74.83;102173.66;4971457;28;20085;-45
2023/05/20 10:06:48;;;;;;;13.25;4.32;;;;;;;15.67;74.74;102158.50;4954248;28;20047;-45
2023/05/20 10:10:09;;;;;;;14.35;4.78;;;;;;;15.69;74.81;102155.38;4929012;28;20069;-45
2023/05/20 10:13:07;;;;;;;18.67;6.70;;;;;;;15.71;74.69;102153.88;4901629;29;20649;-45
2023/05/20 10:15:57;;;;;;;18.40;5.47;;;;;;;15.77;74.51;102155.28;4960008;28;20055;-45
2023/05/20 10:18:53;;;;;;;17.52;5.75;;;;;;;15.82;74.54;102154.25;4961197;28;20575;-45
2023/05/20 10:21:24;;;;;;;13.38;5.50;;;;;;;15.88;74.62;102158.44;4970628;28;20519;-45
2023/05/20 10:23:53;;;;;;;18.08;4.82;;;;;;;15.98;74.55;102160.78;4971281;28;20043;-42
2023/05/20 10:26:21;;;;;;;18.17;5.75;;;;;;;16.07;74.55;102157.91;4970204;28;21280;-51
2023/05/20 10:28:48;;;;;;;13.40;4.20;;;;;;;16.18;74.34;102156.25;4971295;28;20070;-43
2023/05/20 10:31:21;;;;;;;15.82;5.05;;;;;;;16.25;74.19;102162.91;4970962;28;20047;-43
2023/05/20 10:33:51;;;;;;;16.02;5.15;;;;;;;16.29;73.80;102151.81;4970719;28;20493;-43
2023/05/20 10:36:26;;;;;;;20.55;4.15;;;;;;;16.37;73.67;102150.88;4970830;28;20059;-46
2023/05/20 10:38:58;;;;;;;23.00;6.10;;;;;;;16.48;73.39;102157.63;4970186;28;20052;-42
2023/05/20 10:41:30;;;;;;;;;;;;;;;16.60;73.61;102156.84;4967351;28;20511;-42
2023/05/20 10:44:03;;;;;;;13.90;5.07;;;;;;;16.61;73.15;102147.28;4970684;28;19933;-44
2023/05/20 10:46:31;;;;;;;16.98;4.60;;;;;;;16.63;73.16;102147.72;4970523;28;20062;-42
2023/05/20 10:49:18;;;;;;;22.17;5.82;;;;;;;16.66;73.01;102145.06;4970616;28;20428;-44
2023/05/20 10:51:50;;;;;;;9.30;3.65;;;;;;;16.77;72.80;102145.38;4970597;28;20055;-42
2023/05/20 10:54:17;;;;;;;12.25;3.83;;;;;;;16.83;72.31;102146.78;4962790;28;20057;-45
2023/05/20 10:56:53;;;;;;;8.30;3.60;;;;;;;16.94;72.18;102145.13;4961864;28;20074;-46
2023/05/20 10:59:21;;;;;;;19.20;4.45;;;;;;;16.97;71.57;102150.00;4966105;28;20043;-44
2023/05/20 11:01:48;;;;;;;29.58;6.88;;;;;;;17.02;71.32;102152.56;4967448;28;20051;-45
2023/05/20 11:04:16;;;;;;;17.10;4.88;;;;;;;17.03;71.19;102148.56;4968305;28;20113;-44
2023/05/20 11:06:52;;;;;;;13.13;3.65;;;;;;;17.07;71.09;102141.09;4968410;28;20572;-46
2023/05/20 11:09:19;;;;;;;17.15;5.20;;;;;;;17.07;70.81;102135.50;4967225;28;20051;-44
2023/05/20 11:11:46;;;;;;;17.67;4.03;;;;;;;17.07;70.39;102143.91;4968852;28;20054;-45
2023/05/20 11:14:13;;;;;;;15.68;4.75;;;;;;;17.03;70.24;102132.59;4970119;28;20043;-47
2023/05/20 11:16:41;;;;;;;19.08;4.22;;;;;;;17.05;69.91;102143.44;4968237;28;20051;-46
2023/05/20 11:19:14;;;;;;;18.45;5.30;;;;;;;17.01;69.59;102140.53;4952942;28;20515;-44
2023/05/20 11:21:45;;;;;;;12.70;5.13;;;;;;;17.03;69.64;102140.19;4951249;28;20085;-51
2023/05/20 11:24:12;;;;;;;21.60;5.10;;;;;;;17.10;69.68;102137.59;4968592;28;20497;-44